Time;durP1;ratioP1;P1;durP2;ratioP2;P2;SDS_P1;SDS_P2;PMS_P1;PMS_P2;Temp;Humidity;BMP_temperature;BMP_pressure;BME280_temperature;BME280_humidity;BME280_pressure;Samples;Min_cycle;Max_cycle;Signal;HPM_P1;HPM_P2
2023/06/07 00:02:11;;;;;;;3.88;2.53;;;;;;;18.13;48.05;95169.56;5085898;28;20426;-75
2023/06/07 00:04:40;;;;;;;4.25;2.45;;;;;;;18.03;48.27;95159.75;5086147;28;20112;-74
2023/06/07 00:07:06;;;;;;;4.75;2.28;;;;;;;17.81;48.99;95162.94;5084334;28;20048;-76
2023/06/07 00:09:31;;;;;;;3.78;2.60;;;;;;;17.83;49.17;95160.41;5069692;28;20029;-75
2023/06/07 00:11:57;;;;;;;4.80;2.33;;;;;;;17.93;48.68;95161.88;5084542;28;20028;-75
2023/06/07 00:14:23;;;;;;;3.72;2.60;;;;;;;18.00;48.67;95166.28;5067134;28;20032;-76
2023/06/07 00:16:53;;;;;;;5.32;2.45;;;;;;;18.02;48.37;95159.00;5084691;28;20441;-76
2023/06/07 00:19:24;;;;;;;4.35;2.33;;;;;;;17.93;48.57;95161.88;5085736;28;20031;-76
2023/06/07 00:21:53;;;;;;;3.20;2.78;;;;;;;17.92;48.61;95160.34;5067617;28;20573;-76
2023/06/07 00:24:19;;;;;;;4.30;2.70;;;;;;;17.98;48.41;95161.19;5082820;28;20032;-77
2023/06/07 00:26:44;;;;;;;3.90;2.28;;;;;;;17.90;48.82;95157.28;5083874;28;20504;-76
2023/06/07 00:29:10;;;;;;;5.00;2.80;;;;;;;17.93;48.82;95159.09;5083951;28;20065;-77
2023/06/07 00:31:36;;;;;;;3.78;2.33;;;;;;;17.93;48.63;95158.31;5083955;28;20028;-76
2023/06/07 00:34:01;;;;;;;3.97;2.72;;;;;;;17.58;49.40;95155.41;5083924;28;20495;-75
2023/06/07 00:36:28;;;;;;;5.70;2.53;;;;;;;17.59;49.37;95156.94;5083555;28;20024;-76
2023/06/07 00:38:53;;;;;;;5.38;2.50;;;;;;;17.65;49.00;95141.88;5084323;28;20119;-76
2023/06/07 00:41:20;;;;;;;8.60;2.50;;;;;;;17.82;48.84;95163.69;5084159;28;20095;-77
2023/06/07 00:43:47;;;;;;;9.98;2.72;;;;;;;17.87;48.53;95168.59;5089165;28;20062;-75
2023/06/07 00:46:14;;;;;;;4.18;2.45;;;;;;;17.96;48.44;95169.28;5083953;28;20035;-76
2023/06/07 00:48:39;;;;;;;4.35;2.45;;;;;;;18.00;48.35;95163.50;5083749;28;20016;-76
2023/06/07 00:51:05;;;;;;;6.55;2.90;;;;;;;18.05;48.20;95171.94;5083612;28;20030;-76
2023/06/07 00:53:31;;;;;;;6.32;2.42;;;;;;;18.11;48.07;95163.69;5083618;28;20031;-76
2023/06/07 00:55:57;;;;;;;3.60;2.30;;;;;;;18.15;47.86;95167.03;5084014;28;20515;-76
2023/06/07 00:58:22;;;;;;;3.35;2.15;;;;;;;18.17;48.10;95161.00;5082729;28;20534;-76
2023/06/07 01:00:49;;;;;;;4.50;2.55;;;;;;;18.19;47.73;95158.50;5082825;28;20058;-76
2023/06/07 01:03:14;;;;;;;4.68;2.35;;;;;;;18.22;47.69;95160.31;5067914;28;20028;-76
2023/06/07 01:05:39;;;;;;;4.45;2.30;;;;;;;18.14;47.55;95150.84;5027308;28;1121239;-76
2023/06/07 01:08:05;;;;;;;4.97;2.58;;;;;;;18.20;47.42;95157.25;5066152;28;20036;-76
2023/06/07 01:10:31;;;;;;;4.93;2.35;;;;;;;18.23;47.72;95162.59;5084214;28;20024;-75
2023/06/07 01:12:56;;;;;;;4.40;2.58;;;;;;;18.25;47.36;95156.59;5082975;28;20028;-76
2023/06/07 01:15:23;;;;;;;3.50;2.53;;;;;;;18.18;47.33;95154.97;5084030;28;20025;-76
2023/06/07 01:17:48;;;;;;;3.80;2.83;;;;;;;18.19;47.38;95155.72;5083772;28;20024;-76
2023/06/07 01:20:19;;;;;;;4.28;2.33;;;;;;;18.22;47.18;95146.41;5083306;28;20026;-77
2023/06/07 01:22:46;;;;;;;3.72;2.35;;;;;;;18.18;47.41;95162.53;5083459;28;20548;-76
2023/06/07 01:25:12;;;;;;;6.00;2.40;;;;;;;18.19;47.08;95158.50;5083033;28;20178;-76
2023/06/07 01:27:41;;;;;;;5.97;2.58;;;;;;;18.15;46.99;95158.69;5085369;28;20024;-76
2023/06/07 01:30:07;;;;;;;4.40;2.60;;;;;;;18.16;46.73;95156.69;5083267;28;20032;-76
2023/06/07 01:32:33;;;;;;;2.83;2.05;;;;;;;18.13;46.89;95150.06;5085275;28;20103;-75
2023/06/07 01:34:58;;;;;;;5.30;2.20;;;;;;;18.13;46.46;95149.31;5084365;28;20108;-76
2023/06/07 01:37:25;;;;;;;4.88;2.35;;;;;;;18.10;46.53;95153.81;5083446;28;20028;-75
2023/06/07 01:39:52;;;;;;;3.08;2.40;;;;;;;18.12;46.10;95156.09;5083564;28;20024;-76
2023/06/07 01:42:17;;;;;;;3.05;2.30;;;;;;;18.03;46.33;95146.63;5082699;28;20030;-76
2023/06/07 01:44:45;;;;;;;5.88;2.72;;;;;;;18.03;46.35;95149.41;5083420;28;20031;-75
2023/06/07 01:47:12;;;;;;;4.95;2.45;;;;;;;17.99;46.08;95140.47;5082643;28;20078;-75
2023/06/07 01:49:38;;;;;;;5.68;2.25;;;;;;;17.98;46.03;95138.19;5072503;28;20021;-75
2023/06/07 01:52:04;;;;;;;5.90;2.60;;;;;;;17.92;45.97;95128.97;5084224;28;20028;-75
2023/06/07 01:54:30;;;;;;;3.45;2.30;;;;;;;17.91;45.80;95138.56;5084913;28;20024;-75
2023/06/07 01:57:17;;;;;;;4.93;2.15;;;;;;;17.88;45.68;95139.53;5084947;28;20077;-75
2023/06/07 01:59:57;;;;;;;3.35;2.22;;;;;;;17.79;45.77;95137.63;5084346;28;20080;-76
2023/06/07 02:02:58;;;;;;;3.63;2.45;;;;;;;17.78;45.91;95136.84;5083914;28;20483;-75
2023/06/07 02:05:29;;;;;;;4.28;2.65;;;;;;;17.77;45.77;95137.31;5005202;28;20156;-76
2023/06/07 02:07:57;;;;;;;3.65;2.40;;;;;;;17.67;45.92;95136.63;4973249;28;20216;-76
2023/06/07 02:10:25;;;;;;;2.97;2.20;;;;;;;17.40;46.01;95140.44;4989716;28;20158;-76
2023/06/07 02:12:52;;;;;;;5.65;2.20;;;;;;;17.41;46.19;95138.41;4972168;28;20137;-76
2023/06/07 02:15:18;;;;;;;3.80;2.20;;;;;;;17.40;46.40;95142.44;5006297;28;20054;-75
2023/06/07 02:18:02;;;;;;;3.60;1.85;;;;;;;17.32;46.19;95144.03;4988454;28;20037;-75
2023/06/07 02:20:29;;;;;;;3.42;2.20;;;;;;;17.34;46.35;95147.88;4989436;28;20049;-76
2023/06/07 02:22:58;;;;;;;4.25;2.30;;;;;;;17.25;46.42;95145.94;4988822;28;20113;-76
2023/06/07 02:25:24;;;;;;;4.38;2.35;;;;;;;17.33;46.59;95151.16;4972514;28;20038;-76
2023/06/07 02:27:51;;;;;;;3.05;2.22;;;;;;;17.31;46.30;95146.06;5005594;28;20032;-76
2023/06/07 02:30:17;;;;;;;5.93;2.65;;;;;;;17.27;46.44;95150.28;4988283;28;20033;-76
2023/06/07 02:32:45;;;;;;;4.05;2.30;;;;;;;17.30;46.56;95146.53;5005691;28;20562;-75
2023/06/07 02:35:11;;;;;;;3.78;2.20;;;;;;;17.30;46.68;95146.53;5007060;28;20026;-76
2023/06/07 02:37:36;;;;;;;4.45;2.65;;;;;;;17.30;46.84;95143.75;4990205;28;20033;-76
2023/06/07 02:40:05;;;;;;;3.22;2.10;;;;;;;17.32;46.37;95152.38;5068321;28;20040;-76
2023/06/07 02:42:30;;;;;;;3.08;1.92;;;;;;;17.37;46.71;95151.72;5069128;28;20086;-75
2023/06/07 02:44:55;;;;;;;4.13;2.22;;;;;;;17.32;46.47;95149.59;5085616;28;20024;-76
2023/06/07 02:47:21;;;;;;;4.25;2.30;;;;;;;17.32;46.44;95149.59;5068297;28;20514;-76
2023/06/07 02:49:46;;;;;;;6.53;2.53;;;;;;;17.37;46.52;95158.03;5086297;28;20036;-75
2023/06/07 02:52:12;;;;;;;4.80;2.38;;;;;;;17.35;46.28;95149.44;5090699;28;20087;-77
2023/06/07 02:54:39;;;;;;;5.38;2.38;;;;;;;17.35;46.74;95162.56;5092854;28;20024;-76
2023/06/07 02:57:07;;;;;;;4.65;2.28;;;;;;;17.39;46.54;95165.91;5087327;28;20023;-76
2023/06/07 02:59:32;;;;;;;3.95;2.03;;;;;;;17.37;46.42;95148.94;5086080;28;20032;-76
2023/06/07 03:01:58;;;;;;;3.65;2.38;;;;;;;17.41;46.62;95152.31;5085443;28;20028;-76
2023/06/07 03:04:25;;;;;;;5.10;2.22;;;;;;;17.45;46.44;95158.47;5068158;28;20032;-75
2023/06/07 03:06:52;;;;;;;4.72;2.28;;;;;;;17.43;46.51;95155.38;5085770;28;20044;-76
2023/06/07 03:09:18;;;;;;;4.80;2.60;;;;;;;17.40;46.50;95145.97;5068994;28;20020;-77
2023/06/07 03:11:44;;;;;;;3.97;2.35;;;;;;;17.42;46.38;95142.72;5069685;28;20038;-76
2023/06/07 03:14:09;;;;;;;3.63;2.53;;;;;;;17.39;46.50;95144.47;5085176;28;20028;-75
2023/06/07 03:16:35;;;;;;;3.47;2.45;;;;;;;17.09;47.09;95148.38;5084730;28;20026;-75
2023/06/07 03:19:00;;;;;;;5.22;2.35;;;;;;;17.19;46.97;95149.84;5068335;28;20043;-75
2023/06/07 03:21:26;;;;;;;4.97;2.70;;;;;;;17.19;46.88;95156.19;5086686;28;20459;-75
2023/06/07 03:23:53;;;;;;;5.45;2.20;;;;;;;16.80;47.67;95155.38;5084915;28;20119;-76
2023/06/07 03:26:18;;;;;;;5.68;2.45;;;;;;;16.69;47.95;95142.00;5084549;28;20020;-76
2023/06/07 03:28:44;;;;;;;3.38;2.30;;;;;;;16.58;48.30;95143.78;5085766;28;20049;-75
2023/06/07 03:31:10;;;;;;;4.10;2.47;;;;;;;16.65;48.56;95138.63;5067360;28;20026;-75
2023/06/07 03:33:35;;;;;;;7.40;2.70;;;;;;;16.78;48.30;95138.44;5068881;28;20020;-76
2023/06/07 03:36:01;;;;;;;4.50;2.40;;;;;;;16.89;48.03;95147.00;5084913;28;20028;-76
2023/06/07 03:38:28;;;;;;;6.00;3.05;;;;;;;16.98;48.09;95151.72;5086630;28;20052;-76
2023/06/07 03:40:53;;;;;;;4.57;2.60;;;;;;;17.05;48.33;95143.03;5084973;28;20032;-76
2023/06/07 03:43:19;;;;;;;5.22;2.70;;;;;;;17.12;48.14;95145.44;5084339;28;20076;-77
2023/06/07 03:45:44;;;;;;;5.30;2.63;;;;;;;17.19;48.34;95147.84;5089185;28;20020;-77
2023/06/07 03:48:10;;;;;;;5.38;2.65;;;;;;;17.21;48.30;95150.16;5087132;28;20036;-75
2023/06/07 03:50:35;;;;;;;4.55;2.65;;;;;;;17.26;48.22;95138.38;5086446;28;20032;-76
2023/06/07 03:53:00;;;;;;;4.82;2.70;;;;;;;17.32;47.82;95136.50;5085615;28;20026;-76
2023/06/07 03:55:26;;;;;;;3.47;2.20;;;;;;;17.34;48.03;95141.56;5085318;28;20027;-76
2023/06/07 03:57:51;;;;;;;7.38;2.63;;;;;;;17.36;47.84;95148.19;5090841;28;20071;-76
2023/06/07 04:00:17;;;;;;;3.95;2.22;;;;;;;17.16;48.23;95148.03;5085455;28;20890;-77
2023/06/07 04:02:43;;;;;;;4.72;2.63;;;;;;;17.11;48.01;95138.34;5086480;28;20020;-75
2023/06/07 04:05:09;;;;;;;7.88;2.85;;;;;;;17.17;48.07;95141.25;5085202;28;20096;-76
2023/06/07 04:07:34;;;;;;;4.03;2.35;;;;;;;17.27;48.14;95151.03;5085293;28;20575;-76
2023/06/07 04:09:59;;;;;;;4.63;2.50;;;;;;;17.31;48.10;95148.84;5083855;28;20055;-75
2023/06/07 04:12:25;;;;;;;6.00;2.25;;;;;;;17.10;47.98;95153.50;5086358;28;20475;-76
2023/06/07 04:14:50;;;;;;;5.68;2.38;;;;;;;17.10;48.35;95147.16;5085727;28;20220;-75
2023/06/07 04:17:16;;;;;;;7.95;2.92;;;;;;;17.13;48.20;95152.53;5085737;28;20020;-76
2023/06/07 04:19:41;;;;;;;5.65;2.83;;;;;;;17.20;48.28;95138.28;5085570;28;20111;-76
2023/06/07 04:22:07;;;;;;;7.55;2.58;;;;;;;17.21;48.24;95150.94;5083885;28;20023;-75
2023/06/07 04:24:32;;;;;;;4.25;2.60;;;;;;;17.29;48.21;95140.22;5084480;28;20034;-76
2023/06/07 04:26:58;;;;;;;5.75;2.67;;;;;;;17.34;48.13;95149.91;5083398;28;20031;-75
2023/06/07 04:29:26;;;;;;;5.43;3.20;;;;;;;17.32;48.19;95142.06;5084937;28;20028;-76
2023/06/07 04:32:01;;;;;;;4.28;2.80;;;;;;;17.01;48.71;95144.44;5067318;28;20040;-76
2023/06/07 04:34:28;;;;;;;6.30;2.78;;;;;;;17.05;48.94;95150.59;5084721;28;20206;-75
2023/06/07 04:36:53;;;;;;;4.72;3.00;;;;;;;17.03;49.21;95144.72;5085433;28;20109;-76
2023/06/07 04:39:20;;;;;;;5.90;2.60;;;;;;;17.07;48.97;95145.31;5088972;28;20467;-76
2023/06/07 04:41:46;;;;;;;5.38;2.72;;;;;;;17.16;49.01;95139.72;5086058;28;20383;-76
2023/06/07 04:44:11;;;;;;;4.90;2.55;;;;;;;17.18;48.80;95142.78;5083585;28;20032;-76
2023/06/07 04:46:39;;;;;;;7.03;2.70;;;;;;;17.28;48.79;95149.03;5086441;28;20394;-77
2023/06/07 04:49:05;;;;;;;6.38;2.83;;;;;;;17.20;48.84;95143.84;5083606;28;20108;-76
2023/06/07 04:51:31;;;;;;;6.70;2.35;;;;;;;17.27;48.78;95139.16;5090251;28;20474;-75
2023/06/07 04:53:58;;;;;;;5.15;2.78;;;;;;;17.42;48.67;95143.50;5086860;28;20024;-76
2023/06/07 04:56:33;;;;;;;4.88;3.40;;;;;;;17.57;48.74;95149.06;5085042;28;20030;-75
2023/06/07 04:58:58;;;;;;;9.80;3.65;;;;;;;17.69;48.37;95150.81;5084598;28;20024;-76
2023/06/07 05:01:24;;;;;;;6.55;2.75;;;;;;;17.63;48.15;95140.84;5087386;28;20524;-77
2023/06/07 05:03:58;;;;;;;5.47;2.70;;;;;;;17.70;47.96;95152.34;5085141;28;20032;-75
2023/06/07 05:06:24;;;;;;;7.03;3.30;;;;;;;17.75;48.18;95143.38;5083390;28;20116;-75
2023/06/07 05:08:49;;;;;;;7.95;3.53;;;;;;;17.91;48.14;95156.03;5086507;28;20079;-74
2023/06/07 05:11:15;;;;;;;6.60;3.80;;;;;;;18.02;48.30;95158.25;5085401;28;20017;-74
2023/06/07 05:13:41;;;;;;;5.65;3.30;;;;;;;18.13;48.26;95154.88;5084050;28;20063;-74
2023/06/07 05:16:11;;;;;;;5.47;3.38;;;;;;;18.20;47.70;95146.13;5084091;28;20460;-75
2023/06/07 05:18:39;;;;;;;4.78;2.50;;;;;;;18.28;46.77;95161.94;5083653;28;20025;-75
2023/06/07 05:21:04;;;;;;;6.60;3.38;;;;;;;18.40;47.23;95151.75;5084237;28;20437;-78
2023/06/07 05:23:30;;;;;;;6.38;2.92;;;;;;;18.49;47.53;95148.09;5082875;28;20038;-76
2023/06/07 05:25:55;;;;;;;6.22;3.40;;;;;;;18.62;47.62;95154.09;5083017;28;20099;-75
2023/06/07 05:28:20;;;;;;;7.90;3.20;;;;;;;18.73;46.89;95159.09;5084936;28;20038;-77
2023/06/07 05:30:46;;;;;;;10.15;3.00;;;;;;;18.78;46.90;95153.59;5085863;28;20107;-75
2023/06/07 05:33:11;;;;;;;4.07;2.85;;;;;;;18.87;46.87;95161.06;5088096;28;20031;-76
2023/06/07 05:35:37;;;;;;;6.68;2.83;;;;;;;18.95;46.60;95161.41;5083826;28;20111;-76
2023/06/07 05:38:02;;;;;;;7.80;2.80;;;;;;;19.01;45.79;95168.59;5083847;28;20169;-76
2023/06/07 05:40:27;;;;;;;4.38;2.60;;;;;;;18.98;45.40;95160.41;5087632;28;20024;-76
2023/06/07 05:42:56;;;;;;;8.63;2.70;;;;;;;18.98;46.10;95152.06;5088955;28;20020;-76
2023/06/07 05:45:21;;;;;;;4.38;2.47;;;;;;;19.10;46.44;95151.75;5087688;28;20020;-76
2023/06/07 05:47:47;;;;;;;6.13;2.85;;;;;;;19.13;46.15;95152.78;5070402;28;20557;-76
2023/06/07 05:50:12;;;;;;;10.50;2.92;;;;;;;19.29;45.97;95160.56;5087130;28;20016;-76
2023/06/07 05:52:40;;;;;;;3.67;2.80;;;;;;;19.37;45.79;95158.13;5086505;28;20337;-76
2023/06/07 05:55:06;;;;;;;6.30;3.17;;;;;;;19.48;45.92;95158.25;5086993;28;20024;-76
2023/06/07 05:57:32;;;;;;;5.95;2.85;;;;;;;19.56;45.75;95158.59;5086337;28;20054;-76
2023/06/07 05:59:57;;;;;;;6.55;3.20;;;;;;;19.66;46.04;95153.66;5087111;28;20020;-76
2023/06/07 06:02:23;;;;;;;4.55;2.65;;;;;;;19.65;45.63;95149.34;5088085;28;20085;-76
2023/06/07 06:04:51;;;;;;;7.13;3.08;;;;;;;19.75;45.50;95157.03;5090168;28;20027;-76
2023/06/07 06:07:17;;;;;;;4.55;2.55;;;;;;;19.76;45.75;95149.44;5091749;28;20498;-76
2023/06/07 06:09:43;;;;;;;5.60;2.83;;;;;;;19.78;45.53;95147.69;5088126;28;20028;-76
2023/06/07 06:12:09;;;;;;;6.20;2.70;;;;;;;19.83;45.13;95149.75;5086474;28;20460;-76
2023/06/07 06:14:35;;;;;;;4.88;2.60;;;;;;;19.93;45.22;95149.59;5087765;28;20027;-76
2023/06/07 06:17:00;;;;;;;4.63;2.50;;;;;;;20.01;44.69;95156.25;5088220;28;20205;-76
2023/06/07 06:19:26;;;;;;;5.60;2.58;;;;;;;20.07;44.63;95160.66;5085536;28;20502;-77
2023/06/07 06:21:51;;;;;;;5.85;2.90;;;;;;;20.10;44.70;95156.88;5086857;28;20032;-76
2023/06/07 06:24:16;;;;;;;5.28;2.75;;;;;;;20.14;44.74;95156.66;5086045;28;20103;-76
2023/06/07 06:26:42;;;;;;;5.20;3.05;;;;;;;20.22;43.57;95154.16;5089805;28;20016;-76
2023/06/07 06:29:07;;;;;;;7.15;2.70;;;;;;;20.17;43.87;95158.44;5088434;28;20406;-77
2023/06/07 06:31:33;;;;;;;5.05;3.03;;;;;;;20.24;44.53;95154.44;5087541;28;20422;-76
2023/06/07 06:33:59;;;;;;;5.88;3.00;;;;;;;20.35;44.33;95160.09;5086377;28;20498;-77
2023/06/07 06:36:24;;;;;;;3.90;2.45;;;;;;;20.33;44.31;95148.69;5087475;28;20481;-77
2023/06/07 06:38:51;;;;;;;6.30;2.60;;;;;;;20.43;43.76;95156.38;5088120;28;20422;-76
2023/06/07 06:41:16;;;;;;;7.72;3.00;;;;;;;20.50;43.79;95160.75;5086809;28;20470;-76
2023/06/07 06:43:41;;;;;;;5.97;2.80;;;;;;;20.55;43.48;95157.25;5087419;28;20046;-76
2023/06/07 06:46:07;;;;;;;6.90;2.75;;;;;;;20.64;43.89;95165.44;5069123;28;20020;-77
2023/06/07 06:48:35;;;;;;;9.25;2.65;;;;;;;20.71;43.92;95160.66;5086041;28;20499;-76
2023/06/07 06:51:01;;;;;;;5.75;2.70;;;;;;;20.83;43.85;95153.88;5087566;28;20028;-77
2023/06/07 06:53:26;;;;;;;7.97;2.33;;;;;;;20.81;44.04;95154.34;5085690;28;20479;-76
2023/06/07 06:55:52;;;;;;;5.78;2.45;;;;;;;20.91;43.93;95149.31;5087406;28;20043;-76
2023/06/07 06:58:17;;;;;;;5.28;2.83;;;;;;;21.06;43.84;95154.75;5085178;28;20028;-76
2023/06/07 07:00:43;;;;;;;4.90;2.80;;;;;;;21.11;43.40;95148.44;5085756;28;20020;-76
2023/06/07 07:03:09;;;;;;;5.78;2.50;;;;;;;21.24;43.16;95147.97;5086296;28;20023;-76
2023/06/07 07:05:34;;;;;;;5.68;3.17;;;;;;;21.24;42.66;95148.72;5086699;28;20044;-76
2023/06/07 07:08:02;;;;;;;8.48;2.80;;;;;;;21.32;43.41;95149.78;5088880;28;20470;-76
2023/06/07 07:10:27;;;;;;;6.70;2.67;;;;;;;21.42;43.08;95145.50;5090085;28;20163;-76
2023/06/07 07:12:52;;;;;;;4.80;2.63;;;;;;;21.38;43.15;95144.22;5092882;28;20043;-76
2023/06/07 07:15:18;;;;;;;5.60;2.72;;;;;;;21.19;43.05;95141.84;5086766;28;20032;-76
2023/06/07 07:17:47;;;;;;;5.50;2.42;;;;;;;21.37;43.52;95143.47;5086452;28;20028;-76
2023/06/07 07:20:13;;;;;;;4.75;3.03;;;;;;;21.46;43.57;95148.84;5084484;28;20109;-76
2023/06/07 07:22:38;;;;;;;7.65;3.17;;;;;;;21.57;43.26;95148.13;5090938;28;20111;-75
2023/06/07 07:25:05;;;;;;;4.93;2.67;;;;;;;21.66;43.10;95147.09;5084678;28;20514;-75
2023/06/07 07:27:31;;;;;;;7.30;3.08;;;;;;;21.73;42.60;95146.59;5085193;28;20016;-76
2023/06/07 07:29:57;;;;;;;5.93;2.80;;;;;;;21.80;43.02;95137.75;5067782;28;20031;-75
2023/06/07 07:32:22;;;;;;;6.97;3.00;;;;;;;21.92;42.29;95138.53;5084414;28;20115;-75
2023/06/07 07:34:48;;;;;;;5.97;3.10;;;;;;;21.78;42.21;95142.28;5085627;28;20039;-75
2023/06/07 07:37:14;;;;;;;5.32;3.50;;;;;;;21.81;42.38;95139.25;5083947;28;20027;-77
2023/06/07 07:39:39;;;;;;;6.60;3.05;;;;;;;21.96;42.06;95144.59;5084696;28;20104;-76
2023/06/07 07:42:05;;;;;;;7.70;2.92;;;;;;;22.13;42.12;95147.44;5083962;28;20047;-77
2023/06/07 07:44:32;;;;;;;7.43;3.20;;;;;;;22.23;42.50;95143.13;5086069;28;20028;-76
2023/06/07 07:46:57;;;;;;;6.60;2.78;;;;;;;22.36;42.39;95148.22;5067250;28;20034;-77
2023/06/07 07:49:23;;;;;;;9.13;3.03;;;;;;;22.45;41.92;95145.94;5085966;28;20020;-77
2023/06/07 07:51:48;;;;;;;7.30;2.67;;;;;;;22.58;42.24;95137.00;5067009;28;20039;-77
2023/06/07 07:54:14;;;;;;;5.65;2.97;;;;;;;22.67;42.13;95147.19;5084259;28;20032;-76
2023/06/07 07:56:39;;;;;;;5.07;3.50;;;;;;;22.82;41.57;95149.69;5084610;28;20475;-76
2023/06/07 07:59:04;;;;;;;5.22;3.03;;;;;;;22.90;41.00;95140.28;5083916;28;20036;-77
2023/06/07 08:01:30;;;;;;;7.60;3.35;;;;;;;23.10;40.87;95144.81;5085614;28;20023;-77
2023/06/07 08:03:55;;;;;;;5.40;3.22;;;;;;;23.20;40.78;95137.66;5083659;28;20027;-77
2023/06/07 08:06:21;;;;;;;7.22;3.33;;;;;;;23.27;40.73;95150.34;5085626;28;20044;-77
2023/06/07 08:08:46;;;;;;;6.25;3.38;;;;;;;23.30;40.45;95146.53;5083909;28;20024;-77
2023/06/07 08:11:12;;;;;;;5.07;2.53;;;;;;;23.42;40.19;95148.00;5083929;28;20466;-76
2023/06/07 08:13:37;;;;;;;6.35;2.70;;;;;;;23.48;39.96;95151.56;5084556;28;20031;-74
2023/06/07 08:16:03;;;;;;;9.32;2.80;;;;;;;23.57;39.62;95145.66;5092168;28;20077;-77
2023/06/07 08:18:28;;;;;;;4.85;2.80;;;;;;;23.64;39.81;95146.41;5085828;28;20043;-76
2023/06/07 08:20:53;;;;;;;7.13;3.25;;;;;;;23.70;39.67;95147.16;5083593;28;20046;-77
2023/06/07 08:23:19;;;;;;;6.00;2.90;;;;;;;23.75;39.42;95138.69;5084447;28;20020;-77
2023/06/07 08:25:44;;;;;;;4.93;3.25;;;;;;;23.85;39.97;95136.31;5067070;28;20089;-76
2023/06/07 08:28:09;;;;;;;5.22;3.65;;;;;;;23.96;39.65;95144.66;5085376;28;20094;-77
2023/06/07 08:30:35;;;;;;;9.13;3.30;;;;;;;24.05;39.32;95144.38;5085242;28;20413;-76
2023/06/07 08:33:00;;;;;;;7.40;3.60;;;;;;;24.15;39.01;95146.88;5083427;28;20058;-77
2023/06/07 08:35:26;;;;;;;8.55;3.38;;;;;;;24.24;39.09;95152.13;5085309;28;20020;-76
2023/06/07 08:37:51;;;;;;;6.85;3.08;;;;;;;24.37;38.72;95146.69;5083394;28;20023;-77
2023/06/07 08:40:21;;;;;;;6.13;2.60;;;;;;;24.39;38.66;95146.94;5084396;28;20028;-76
2023/06/07 08:42:49;;;;;;;4.70;3.00;;;;;;;24.56;38.31;95156.00;5083333;28;20024;-77
2023/06/07 08:45:17;;;;;;;5.60;3.00;;;;;;;24.63;38.53;95149.78;5085467;28;20031;-77
2023/06/07 08:47:44;;;;;;;4.13;3.38;;;;;;;24.76;38.04;95154.03;5083951;28;20024;-77
2023/06/07 08:50:14;;;;;;;6.30;3.53;;;;;;;24.77;38.58;95156.28;5083513;28;20042;-76
2023/06/07 08:52:41;;;;;;;7.07;3.42;;;;;;;24.86;38.26;95153.16;5083650;28;20061;-77
2023/06/07 08:55:10;;;;;;;5.90;2.88;;;;;;;24.91;37.41;95151.56;5084299;28;20101;-76
2023/06/07 08:57:36;;;;;;;5.60;3.20;;;;;;;24.93;37.48;95148.22;5085280;28;20056;-76
2023/06/07 09:00:06;;;;;;;8.05;3.08;;;;;;;25.03;37.47;95155.03;5084550;28;20062;-77
2023/06/07 09:02:35;;;;;;;5.47;3.15;;;;;;;25.12;37.65;95149.84;5084911;28;20035;-76
2023/06/07 09:05:01;;;;;;;6.65;3.50;;;;;;;25.22;37.33;95147.41;5082751;28;20031;-76
2023/06/07 09:07:27;;;;;;;9.10;3.08;;;;;;;25.37;37.30;95141.38;5083243;28;20527;-76
2023/06/07 09:09:52;;;;;;;5.47;3.00;;;;;;;25.50;37.37;95144.28;5086308;28;20028;-77
2023/06/07 09:12:18;;;;;;;6.70;2.85;;;;;;;25.59;36.52;95135.47;5083954;28;20502;-76
2023/06/07 09:14:46;;;;;;;7.88;3.85;;;;;;;25.67;36.68;95144.81;5086741;28;20106;-76
2023/06/07 09:17:12;;;;;;;8.60;2.97;;;;;;;25.74;36.35;95137.84;5088212;28;20057;-77
2023/06/07 09:19:37;;;;;;;4.65;2.80;;;;;;;25.78;36.96;95141.13;5092572;28;20086;-76
2023/06/07 09:22:07;;;;;;;5.18;3.13;;;;;;;25.86;36.62;95142.03;5091419;28;20406;-77
2023/06/07 09:24:33;;;;;;;6.28;3.03;;;;;;;25.88;36.59;95133.81;5088797;28;20053;-76
2023/06/07 09:27:00;;;;;;;7.10;2.47;;;;;;;25.91;36.12;95129.16;5091584;28;20173;-77
2023/06/07 09:29:28;;;;;;;6.75;3.13;;;;;;;26.03;35.73;95133.31;5090268;28;20024;-77
2023/06/07 09:31:59;;;;;;;7.30;3.45;;;;;;;26.16;35.93;95124.94;5088962;28;20089;-76
2023/06/07 09:34:26;;;;;;;6.32;3.80;;;;;;;26.20;36.23;95128.19;5087170;28;20020;-76
2023/06/07 09:36:58;;;;;;;7.50;2.92;;;;;;;26.28;36.20;95127.59;5070852;28;20101;-77
2023/06/07 09:39:31;;;;;;;6.32;3.28;;;;;;;26.33;36.26;95123.94;5088502;28;20027;-76
2023/06/07 09:41:57;;;;;;;7.57;3.70;;;;;;;26.41;35.95;95119.19;5087183;28;20131;-77
2023/06/07 09:44:29;;;;;;;10.10;3.50;;;;;;;26.47;35.79;95122.69;5088183;28;20437;-77
2023/06/07 09:46:55;;;;;;;6.30;2.97;;;;;;;26.51;35.39;95128.00;5086644;28;20050;-76
2023/06/07 09:49:35;;;;;;;8.40;3.53;;;;;;;26.66;35.43;95123.38;5087275;28;20028;-76
2023/06/07 09:52:05;;;;;;;6.25;3.42;;;;;;;26.75;34.99;95108.09;5086679;28;20131;-78
2023/06/07 09:54:41;;;;;;;7.18;3.70;;;;;;;26.81;34.96;95110.81;5086851;28;20070;-77
2023/06/07 09:57:27;;;;;;;6.88;2.95;;;;;;;26.87;34.56;95114.28;5088219;28;20035;-76
2023/06/07 10:00:20;;;;;;;6.75;3.90;;;;;;;26.88;35.08;95110.94;5086225;28;20162;-76
2023/06/07 10:02:47;;;;;;;4.80;3.33;;;;;;;27.02;34.64;95120.16;5085029;28;20508;-76
2023/06/07 10:05:14;;;;;;;5.65;3.03;;;;;;;27.04;34.16;95109.09;5091027;28;20040;-76
2023/06/07 10:07:44;;;;;;;6.93;3.58;;;;;;;27.16;33.48;95112.47;5088258;28;20020;-76
2023/06/07 10:10:14;;;;;;;7.47;2.97;;;;;;;27.12;33.24;95106.41;5086276;28;20024;-75
2023/06/07 10:12:44;;;;;;;4.90;3.30;;;;;;;27.12;33.37;95109.22;5087908;28;20042;-76
2023/06/07 10:15:14;;;;;;;7.47;2.95;;;;;;;27.21;33.08;95114.44;5087706;28;20040;-76
2023/06/07 10:17:42;;;;;;;4.55;2.85;;;;;;;27.21;32.76;95103.16;5085987;28;20036;-76
2023/06/07 10:20:12;;;;;;;4.97;2.75;;;;;;;27.10;32.75;95098.50;5088239;28;20032;-76
2023/06/07 10:22:41;;;;;;;6.55;3.25;;;;;;;27.17;33.16;95103.47;5069355;28;20089;-77
2023/06/07 10:25:18;;;;;;;6.03;3.20;;;;;;;27.22;32.64;95101.84;5093247;28;20409;-76
2023/06/07 10:28:13;;;;;;;5.35;2.83;;;;;;;27.04;32.37;95095.00;5086401;28;20024;-75
2023/06/07 10:30:43;;;;;;;5.18;2.67;;;;;;;27.04;33.04;95095.00;5087022;28;20107;-76
2023/06/07 10:33:09;;;;;;;6.30;3.05;;;;;;;26.78;32.89;95098.53;5086322;28;20027;-76
2023/06/07 10:35:37;;;;;;;6.03;3.30;;;;;;;26.78;33.60;95090.09;5085653;28;20118;-76
2023/06/07 10:38:02;;;;;;;4.40;2.70;;;;;;;26.81;33.86;95085.44;5086064;28;20054;-75
2023/06/07 10:40:28;;;;;;;4.00;2.78;;;;;;;26.86;33.92;95090.22;5085326;28;20532;-76
2023/06/07 10:42:55;;;;;;;5.18;2.85;;;;;;;26.94;33.68;95091.06;5085480;28;20023;-75
2023/06/07 10:45:21;;;;;;;6.03;2.75;;;;;;;26.94;33.79;95085.44;5085444;28;20482;-76
2023/06/07 10:47:49;;;;;;;4.88;3.10;;;;;;;27.05;33.91;95076.75;5068546;28;20032;-76
2023/06/07 10:50:44;;;;;;;5.57;3.03;;;;;;;27.23;33.52;95087.19;5087153;28;20105;-78
2023/06/07 10:53:10;;;;;;;5.53;2.88;;;;;;;26.61;33.16;95084.78;5074653;28;20051;-76
2023/06/07 10:55:35;;;;;;;4.93;2.80;;;;;;;26.80;33.94;95086.75;5085245;28;20023;-75
2023/06/07 10:58:01;;;;;;;3.88;2.63;;;;;;;26.64;33.55;95083.69;5089166;28;20111;-77
2023/06/07 11:00:32;;;;;;;4.10;3.05;;;;;;;26.88;33.91;95077.06;5086657;28;20024;-77
2023/06/07 11:03:09;;;;;;;6.90;3.33;;;;;;;27.09;34.27;95080.03;5087295;28;20511;-77
2023/06/07 11:05:55;;;;;;;5.35;2.70;;;;;;;26.97;32.75;95082.31;5086188;28;20043;-75
2023/06/07 11:08:24;;;;;;;5.95;2.92;;;;;;;27.06;33.49;95083.94;5086583;28;20031;-77
2023/06/07 11:10:50;;;;;;;6.88;2.97;;;;;;;27.08;34.06;95074.94;5087091;28;20051;-77
2023/06/07 11:13:15;;;;;;;5.20;2.40;;;;;;;27.31;34.02;95067.53;5086570;28;20494;-77
2023/06/07 11:15:40;;;;;;;5.68;2.67;;;;;;;27.51;33.84;95068.91;5086485;28;20028;-77
2023/06/07 11:18:10;;;;;;;3.80;2.90;;;;;;;27.70;33.93;95065.94;5085031;28;20020;-77
2023/06/07 11:20:36;;;;;;;4.32;3.03;;;;;;;27.89;33.70;95065.78;5087024;28;20145;-77
2023/06/07 11:23:23;;;;;;;5.22;3.05;;;;;;;28.13;33.07;95059.03;5086333;28;20028;-77
2023/06/07 11:25:51;;;;;;;5.50;3.30;;;;;;;28.17;32.93;95059.47;5086713;28;20060;-77
2023/06/07 11:28:23;;;;;;;4.00;2.88;;;;;;;28.28;32.37;95057.13;5088028;28;20146;-77
2023/06/07 11:30:51;;;;;;;4.38;2.65;;;;;;;28.24;32.73;95053.88;5088535;28;20498;-77
2023/06/07 11:33:16;;;;;;;5.85;2.88;;;;;;;28.27;33.36;95047.13;5085471;28;20028;-77
2023/06/07 11:35:42;;;;;;;8.15;2.97;;;;;;;28.44;33.14;95051.59;5084147;28;20023;-77